Time;durP1;ratioP1;P1;durP2;ratioP2;P2;SDS_P1;SDS_P2;PMS_P1;PMS_P2;Temp;Humidity;BMP_temperature;BMP_pressure;BME280_temperature;BME280_humidity;BME280_pressure;Samples;Min_cycle;Max_cycle;Signal;HPM_P1;HPM_P2
2022/11/12 00:00:40;;;;;;;17.60;11.88;;;10.30;91.40;;;;;;5014765;28;20089;-72
2022/11/12 00:03:06;;;;;;;23.67;14.00;;;10.30;91.40;;;;;;5011240;28;20029;-73
2022/11/12 00:05:32;;;;;;;23.77;14.82;;;10.30;91.50;;;;;;5014670;28;20029;-75
2022/11/12 00:07:59;;;;;;;18.95;12.57;;;10.30;91.40;;;;;;5007785;28;20038;-74
2022/11/12 00:10:25;;;;;;;17.42;12.50;;;10.30;91.30;;;;;;5023129;28;20022;-74
2022/11/12 00:12:51;;;;;;;23.83;15.20;;;10.30;91.20;;;;;;5009669;28;20037;-74
2022/11/12 00:15:16;;;;;;;23.75;13.63;;;10.30;91.40;;;;;;5021687;28;20042;-75
2022/11/12 00:17:43;;;;;;;20.40;14.07;;;10.30;91.40;;;;;;5017409;28;20030;-74
2022/11/12 00:20:09;;;;;;;22.65;13.65;;;10.30;91.30;;;;;;5019266;28;20091;-74
2022/11/12 00:22:35;;;;;;;18.75;12.98;;;10.20;91.20;;;;;;5015883;28;20026;-74
2022/11/12 00:25:01;;;;;;;21.92;14.57;;;10.20;91.10;;;;;;5018608;28;20051;-74
2022/11/12 00:27:27;;;;;;;20.88;13.20;;;10.20;91.10;;;;;;5018992;28;20060;-73
2022/11/12 00:29:52;;;;;;;18.95;13.57;;;10.20;91.00;;;;;;5022935;28;20049;-73
2022/11/12 00:32:19;;;;;;;24.27;13.85;;;10.20;91.00;;;;;;5019722;28;20553;-72
2022/11/12 00:34:44;;;;;;;22.65;15.00;;;10.20;91.00;;;;;;5018733;28;20088;-74
2022/11/12 00:37:10;;;;;;;20.25;14.38;;;10.20;90.90;;;;;;5016921;28;20034;-74
2022/11/12 00:39:36;;;;;;;26.65;14.70;;;10.10;90.80;;;;;;5017250;28;20105;-73
2022/11/12 00:42:01;;;;;;;18.30;14.02;;;10.10;90.80;;;;;;5022110;28;20040;-74
2022/11/12 00:44:28;;;;;;;21.17;12.93;;;10.10;90.70;;;;;;5026279;28;20041;-74
2022/11/12 00:46:55;;;;;;;17.77;12.40;;;10.10;90.60;;;;;;5026024;28;20116;-74
2022/11/12 00:49:21;;;;;;;24.60;15.05;;;10.00;90.60;;;;;;5026577;28;20447;-73
2022/11/12 00:51:46;;;;;;;21.83;14.82;;;10.00;90.60;;;;;;5029576;28;20032;-74
2022/11/12 00:54:12;;;;;;;21.13;14.25;;;10.00;90.60;;;;;;5012792;28;20041;-73
2022/11/12 00:56:37;;;;;;;20.27;15.80;;;10.00;90.60;;;;;;5023338;28;20022;-74
2022/11/12 00:59:04;;;;;;;24.58;14.95;;;10.00;90.70;;;;;;5012678;28;20088;-73
2022/11/12 01:01:30;;;;;;;18.33;13.35;;;9.90;90.70;;;;;;5025443;28;20025;-72
2022/11/12 01:03:57;;;;;;;19.85;13.73;;;9.90;90.70;;;;;;5016644;28;20022;-74
2022/11/12 01:06:23;;;;;;;21.27;13.63;;;9.90;90.70;;;;;;5024293;28;20103;-72
2022/11/12 01:08:49;;;;;;;17.90;12.27;;;9.90;90.70;;;;;;5029753;28;20033;-72
2022/11/12 01:11:18;;;;;;;21.48;13.80;;;9.80;90.70;;;;;;5029477;28;20022;-73
2022/11/12 01:13:45;;;;;;;20.17;14.68;;;9.80;90.70;;;;;;5022590;28;20145;-72
2022/11/12 01:16:15;;;;;;;22.63;15.38;;;9.80;90.70;;;;;;5019439;28;20040;-72
2022/11/12 01:18:42;;;;;;;24.63;16.50;;;9.80;90.70;;;;;;5018897;28;20021;-73
2022/11/12 01:21:08;;;;;;;19.63;13.50;;;9.80;90.80;;;;;;5017890;28;20018;-73
2022/11/12 01:23:36;;;;;;;20.38;14.60;;;9.80;90.80;;;;;;5016495;28;20057;-73
2022/11/12 01:26:10;;;;;;;18.00;12.50;;;9.80;90.80;;;;;;5019946;28;20064;-73
2022/11/12 01:28:36;;;;;;;24.55;16.13;;;9.70;90.80;;;;;;5029545;28;20546;-74
2022/11/12 01:31:16;;;;;;;22.60;14.52;;;9.80;90.80;;;;;;5028704;28;20025;-75
2022/11/12 01:33:43;;;;;;;21.52;15.32;;;9.70;90.80;;;;;;5010565;28;20022;-72
2022/11/12 01:36:09;;;;;;;23.38;15.18;;;9.70;90.70;;;;;;5012072;28;20113;-73
2022/11/12 01:38:37;;;;;;;19.38;14.23;;;9.70;90.80;;;;;;5027555;28;20586;-74
2022/11/12 01:41:04;;;;;;;23.27;17.27;;;9.70;90.80;;;;;;5014672;28;20492;-74
2022/11/12 01:43:29;;;;;;;18.98;13.98;;;9.70;90.80;;;;;;5025586;28;20771;-74
2022/11/12 01:45:56;;;;;;;21.00;13.95;;;9.70;90.80;;;;;;5018180;28;20025;-73
2022/11/12 01:48:42;;;;;;;26.58;14.98;;;9.70;90.80;;;;;;5028199;28;20112;-73
2022/11/12 01:51:11;;;;;;;21.20;15.00;;;9.60;90.80;;;;;;5015286;28;20057;-74
2022/11/12 01:53:42;;;;;;;22.75;14.88;;;9.70;90.70;;;;;;5023353;28;20033;-74
2022/11/12 01:56:08;;;;;;;23.30;14.98;;;9.70;90.70;;;;;;5027433;28;20030;-73
2022/11/12 01:58:37;;;;;;;20.90;13.50;;;9.60;90.70;;;;;;5019593;28;20021;-73
2022/11/12 02:01:03;;;;;;;22.20;15.10;;;9.60;90.70;;;;;;5023049;28;20033;-73
2022/11/12 02:03:29;;;;;;;21.58;14.93;;;9.60;90.70;;;;;;5023322;28;20096;-73
2022/11/12 02:06:04;;;;;;;26.20;16.92;;;9.60;90.70;;;;;;5016144;28;20025;-73
2022/11/12 02:08:31;;;;;;;24.00;15.25;;;9.60;90.70;;;;;;5016407;28;20495;-72
2022/11/12 02:10:57;;;;;;;26.83;15.55;;;9.50;90.70;;;;;;5010706;28;20030;-74
2022/11/12 02:16:09;;;;;;;22.85;15.23;;;9.50;90.90;;;;;;5011451;28;20469;-73
2022/11/12 02:18:35;;;;;;;28.30;18.85;;;9.50;90.90;;;;;;5018203;28;20091;-73
2022/11/12 02:21:07;;;;;;;33.50;20.20;;;9.50;91.00;;;;;;5028770;28;20033;-72
2022/11/12 02:23:33;;;;;;;27.27;15.15;;;9.50;91.10;;;;;;5028702;28;20045;-73
2022/11/12 02:26:00;;;;;;;32.72;18.92;;;9.40;91.00;;;;;;5022356;28;20029;-73
2022/11/12 02:28:27;;;;;;;27.17;15.30;;;9.40;91.00;;;;;;5016042;28;20037;-73
2022/11/12 02:30:53;;;;;;;26.75;19.25;;;9.40;91.00;;;;;;5019142;28;20022;-73
2022/11/12 02:33:18;;;;;;;23.67;15.18;;;9.40;91.00;;;;;;5017297;28;20037;-73
2022/11/12 02:35:44;;;;;;;21.65;15.85;;;9.40;90.90;;;;;;5015781;28;20041;-73
2022/11/12 02:38:15;;;;;;;28.27;15.82;;;9.30;90.90;;;;;;5018983;28;20083;-73
2022/11/12 02:40:42;;;;;;;24.33;17.15;;;9.30;90.90;;;;;;5012628;28;20675;-73
2022/11/12 02:43:08;;;;;;;24.02;17.58;;;9.30;90.90;;;;;;5023011;28;20498;-73
2022/11/12 02:45:33;;;;;;;25.42;16.33;;;9.30;91.00;;;;;;5026405;28;20026;-73
2022/11/12 02:47:59;;;;;;;24.17;14.48;;;9.30;90.90;;;;;;5012250;28;20098;-72
2022/11/12 02:50:25;;;;;;;22.25;15.93;;;9.30;90.90;;;;;;5019977;28;20092;-73
2022/11/12 02:52:50;;;;;;;24.20;16.05;;;9.30;90.90;;;;;;5026263;28;20526;-73
2022/11/12 02:55:16;;;;;;;19.50;14.60;;;9.30;90.90;;;;;;5013830;28;20061;-73
2022/11/12 02:57:42;;;;;;;21.70;15.40;;;9.30;90.90;;;;;;5009692;28;20087;-73
2022/11/12 03:00:11;;;;;;;22.88;15.88;;;9.30;90.90;;;;;;5021525;28;20022;-73
2022/11/12 03:02:42;;;;;;;22.55;14.07;;;9.30;90.80;;;;;;5020905;28;20144;-74
2022/11/12 03:05:11;;;;;;;23.30;16.25;;;9.30;90.80;;;;;;5015857;28;20029;-73
2022/11/12 03:07:37;;;;;;;26.27;16.92;;;9.30;91.00;;;;;;5024566;28;20034;-73
2022/11/12 03:10:04;;;;;;;22.38;15.60;;;9.30;90.90;;;;;;5016877;28;20018;-73
2022/11/12 03:12:31;;;;;;;22.70;15.73;;;9.30;91.00;;;;;;5024956;28;20176;-74
2022/11/12 03:14:57;;;;;;;26.00;15.63;;;9.30;91.00;;;;;;5015659;28;20057;-74
2022/11/12 03:17:22;;;;;;;19.63;14.02;;;9.20;91.00;;;;;;5019049;28;20591;-73
2022/11/12 03:19:48;;;;;;;24.25;15.43;;;9.30;91.00;;;;;;5014046;28;20101;-73
2022/11/12 03:22:14;;;;;;;17.92;13.07;;;9.20;90.90;;;;;;5017009;28;20053;-73
2022/11/12 03:24:39;;;;;;;23.80;16.17;;;9.20;90.90;;;;;;5010809;28;20062;-72
2022/11/12 03:27:05;;;;;;;22.55;14.95;;;9.20;90.80;;;;;;5015786;28;20029;-74
2022/11/12 03:29:30;;;;;;;22.25;15.02;;;9.20;90.80;;;;;;5011697;28;20068;-74
2022/11/12 03:31:56;;;;;;;23.48;15.05;;;9.20;90.80;;;;;;5021986;28;20607;-72
2022/11/12 03:34:22;;;;;;;18.45;14.10;;;9.20;90.70;;;;;;5008319;28;20036;-74
2022/11/12 03:36:47;;;;;;;17.30;12.40;;;9.20;90.60;;;;;;5021997;28;21393;-74
2022/11/12 03:39:14;;;;;;;26.65;16.75;;;9.10;90.50;;;;;;5018881;28;20146;-73
2022/11/12 03:41:40;;;;;;;21.08;13.88;;;9.10;90.60;;;;;;5018321;28;20175;-72
2022/11/12 03:44:05;;;;;;;22.13;14.30;;;9.10;90.60;;;;;;5022310;28;20544;-74
2022/11/12 03:46:31;;;;;;;19.50;14.93;;;9.10;90.50;;;;;;5017463;28;20153;-73
2022/11/12 03:48:58;;;;;;;17.88;12.45;;;9.10;90.50;;;;;;5013895;28;20105;-74
2022/11/12 03:51:23;;;;;;;23.50;15.23;;;9.00;90.70;;;;;;5017003;28;20031;-73
2022/11/12 03:53:49;;;;;;;22.33;13.68;;;9.00;90.40;;;;;;5013603;28;20646;-72
2022/11/12 03:56:14;;;;;;;19.83;13.63;;;9.00;90.60;;;;;;5013003;28;20029;-74
2022/11/12 03:58:40;;;;;;;19.58;14.00;;;9.00;90.60;;;;;;5020948;28;20026;-73
2022/11/12 04:01:06;;;;;;;20.00;14.20;;;9.00;90.60;;;;;;5016216;28;20495;-74
2022/11/12 04:03:31;;;;;;;23.67;15.65;;;9.00;90.60;;;;;;5029843;28;20029;-73
2022/11/12 04:08:41;;;;;;;20.40;15.93;;;9.00;90.50;;;;;;5022984;28;20037;-73
2022/11/12 04:11:14;;;;;;;21.63;15.95;;;9.00;90.50;;;;;;5013789;28;20030;-73
2022/11/12 04:13:41;;;;;;;23.23;17.67;;;8.90;90.50;;;;;;5020082;28;20620;-73
2022/11/12 04:21:54;;;;;;;25.77;15.95;;;8.90;90.40;;;;;;5023454;28;20083;-74
2022/11/12 04:27:16;;;;;;;23.15;16.83;;;8.80;90.50;;;;;;5015000;28;20049;-73
2022/11/12 04:32:28;;;;;;;23.15;15.20;;;8.80;90.40;;;;;;5018129;28;20128;-74
2022/11/12 04:34:54;;;;;;;22.90;14.25;;;8.80;90.40;;;;;;5025609;28;20155;-73
2022/11/12 04:37:21;;;;;;;26.45;16.13;;;8.80;90.40;;;;;;5014678;28;20034;-73
2022/11/12 04:39:46;;;;;;;19.63;14.77;;;8.80;90.40;;;;;;5024451;28;20049;-74
2022/11/12 04:45:00;;;;;;;18.83;14.73;;;8.80;90.30;;;;;;5025684;28;20100;-74
2022/11/12 04:47:38;;;;;;;20.88;15.32;;;8.80;90.20;;;;;;5012689;28;20037;-74
2022/11/12 04:50:07;;;;;;;21.95;14.98;;;8.70;90.20;;;;;;5014426;28;20025;-73
2022/11/12 04:52:33;;;;;;;27.40;15.85;;;8.70;90.10;;;;;;5011504;28;20032;-73
2022/11/12 04:54:58;;;;;;;25.73;15.65;;;8.70;90.10;;;;;;5026845;28;20298;-74
2022/11/12 04:57:25;;;;;;;22.40;15.57;;;8.70;90.10;;;;;;5017864;28;20105;-73
2022/11/12 04:59:51;;;;;;;24.13;14.15;;;8.70;90.10;;;;;;5026123;28;20487;-73
2022/11/12 05:02:17;;;;;;;22.85;14.60;;;8.70;90.00;;;;;;5017559;28;20037;-73
2022/11/12 05:04:43;;;;;;;19.65;14.30;;;8.70;90.00;;;;;;5021137;28;20423;-73
2022/11/12 05:07:09;;;;;;;18.85;13.20;;;8.70;90.00;;;;;;5019688;28;20026;-73
2022/11/12 05:09:35;;;;;;;21.33;13.85;;;8.60;90.10;;;;;;5022838;28;20026;-73
2022/11/12 05:12:02;;;;;;;21.25;15.18;;;8.60;90.10;;;;;;5015226;28;20026;-73
2022/11/12 05:14:27;;;;;;;18.70;13.10;;;8.60;90.10;;;;;;5015966;28;20088;-73
2022/11/12 05:16:53;;;;;;;22.17;14.45;;;8.60;90.00;;;;;;5012400;28;20495;-73
2022/11/12 05:19:19;;;;;;;20.45;13.18;;;8.60;90.00;;;;;;5017860;28;20533;-72
2022/11/12 05:24:30;;;;;;;22.05;13.23;;;8.60;90.00;;;;;;5017063;28;20052;-73
2022/11/12 05:26:57;;;;;;;17.42;13.35;;;8.50;90.10;;;;;;5020594;28;20033;-73
2022/11/12 05:29:22;;;;;;;17.80;12.45;;;8.50;90.10;;;;;;5017218;28;20029;-73
2022/11/12 05:31:48;;;;;;;21.27;12.73;;;8.50;90.10;;;;;;5024102;28;20018;-73
2022/11/12 05:34:14;;;;;;;21.25;12.48;;;8.50;90.20;;;;;;5029471;28;20021;-74
2022/11/12 05:36:41;;;;;;;19.80;12.82;;;8.50;90.20;;;;;;5025241;28;20061;-73
2022/11/12 05:39:07;;;;;;;19.35;13.32;;;8.50;90.10;;;;;;5014027;28;20030;-73
2022/11/12 05:41:34;;;;;;;19.00;12.48;;;8.50;90.10;;;;;;5020868;28;20032;-72
2022/11/12 05:43:59;;;;;;;26.73;15.73;;;8.50;90.10;;;;;;5015071;28;20030;-73
2022/11/12 05:46:25;;;;;;;20.55;13.80;;;8.50;90.10;;;;;;5026200;28;20646;-73
2022/11/12 05:48:52;;;;;;;19.35;12.95;;;8.40;90.10;;;;;;5009429;28;20037;-72
2022/11/12 05:51:17;;;;;;;18.40;12.35;;;8.40;90.20;;;;;;5021516;28;20108;-74
2022/11/12 05:53:43;;;;;;;19.35;12.23;;;8.40;90.20;;;;;;5021436;28;20117;-73
2022/11/12 05:56:10;;;;;;;19.52;13.25;;;8.40;90.20;;;;;;5027439;28;20637;-74
2022/11/12 05:58:36;;;;;;;17.83;13.45;;;8.40;90.10;;;;;;5019928;28;20038;-73
2022/11/12 06:01:02;;;;;;;21.23;13.50;;;8.40;90.10;;;;;;5018874;28;20025;-73
2022/11/12 06:03:28;;;;;;;15.40;11.75;;;8.40;90.10;;;;;;5022165;28;20034;-71
2022/11/12 06:05:54;;;;;;;24.17;14.90;;;8.40;90.10;;;;;;5022390;28;20021;-72
2022/11/12 06:08:19;;;;;;;22.52;13.82;;;8.40;90.10;;;;;;5029383;28;20026;-73
2022/11/12 06:10:52;;;;;;;20.52;12.90;;;8.40;90.20;;;;;;5026615;28;20107;-72
2022/11/12 06:13:19;;;;;;;22.05;13.10;;;8.30;90.20;;;;;;5027804;28;20087;-73
2022/11/12 06:15:45;;;;;;;22.05;13.27;;;8.40;90.30;;;;;;5025604;28;20049;-73
2022/11/12 06:18:11;;;;;;;19.35;12.55;;;8.40;90.40;;;;;;5027864;28;20045;-72
2022/11/12 06:20:36;;;;;;;19.38;12.70;;;8.30;90.50;;;;;;5015451;28;20049;-75
2022/11/12 06:23:02;;;;;;;18.55;12.45;;;8.40;90.50;;;;;;5025518;28;20025;-73
2022/11/12 06:25:28;;;;;;;18.80;12.35;;;8.40;90.50;;;;;;5012553;28;20049;-73
2022/11/12 06:27:54;;;;;;;17.75;12.25;;;8.40;90.50;;;;;;5021722;28;20021;-73
2022/11/12 06:30:21;;;;;;;17.13;11.38;;;8.40;90.50;;;;;;5012293;28;20026;-72
2022/11/12 06:32:47;;;;;;;18.65;12.75;;;8.40;90.40;;;;;;5016361;28;20045;-71
2022/11/12 06:35:14;;;;;;;16.33;11.52;;;8.40;90.30;;;;;;5009198;28;20085;-72
2022/11/12 06:37:40;;;;;;;20.45;12.40;;;8.40;90.20;;;;;;5022395;28;20022;-72
2022/11/12 06:40:06;;;;;;;17.58;10.52;;;8.40;90.20;;;;;;5012059;28;20034;-72
2022/11/12 06:42:32;;;;;;;16.00;11.23;;;8.40;90.20;;;;;;5020820;28;20021;-73
2022/11/12 06:44:58;;;;;;;17.05;11.13;;;8.40;90.20;;;;;;5024152;28;20038;-72
2022/11/12 06:47:24;;;;;;;15.52;10.25;;;8.40;90.30;;;;;;5017495;28;20020;-72
2022/11/12 06:49:49;;;;;;;16.63;11.05;;;8.40;90.40;;;;;;5021598;28;20097;-72
2022/11/12 06:52:15;;;;;;;16.20;11.18;;;8.40;90.40;;;;;;5014908;28;20122;-73
2022/11/12 06:54:41;;;;;;;14.07;10.60;;;8.40;90.40;;;;;;5012352;28;20496;-73
2022/11/12 06:57:07;;;;;;;13.48;10.48;;;8.40;90.40;;;;;;5013475;28;20495;-73
2022/11/12 06:59:35;;;;;;;16.52;10.07;;;8.50;90.30;;;;;;5017750;28;20035;-73
2022/11/12 07:02:01;;;;;;;15.40;10.57;;;8.50;90.30;;;;;;5010539;28;20022;-73
2022/11/12 07:04:27;;;;;;;18.83;12.48;;;8.50;90.30;;;;;;5019058;28;20045;-72
2022/11/12 07:06:52;;;;;;;18.75;11.90;;;8.50;90.30;;;;;;5018484;28;20048;-72
2022/11/12 07:09:18;;;;;;;14.25;10.00;;;8.50;90.30;;;;;;5020132;28;20033;-71
2022/11/12 07:11:44;;;;;;;19.00;11.70;;;8.50;90.30;;;;;;5016607;28;20384;-72
2022/11/12 07:14:09;;;;;;;15.73;10.13;;;8.60;90.70;;;;;;5019732;28;20200;-72
2022/11/12 07:16:35;;;;;;;16.30;10.32;;;8.70;90.60;;;;;;5017954;28;20030;-72
2022/11/12 07:19:01;;;;;;;14.27;9.98;;;8.80;90.40;;;;;;5013228;28;20115;-72
2022/11/12 07:21:27;;;;;;;15.82;9.82;;;8.80;90.20;;;;;;5016876;28;20021;-72
2022/11/12 07:23:52;;;;;;;13.52;9.68;;;8.80;90.10;;;;;;5017656;28;20065;-73
2022/11/12 07:26:26;;;;;;;15.25;10.18;;;8.90;90.20;;;;;;5014198;28;20028;-73
2022/11/12 07:28:52;;;;;;;15.23;9.25;;;9.20;90.60;;;;;;5015625;28;20164;-73
2022/11/12 07:31:19;;;;;;;16.40;9.20;;;9.70;90.60;;;;;;5024407;28;20018;-72
2022/11/12 07:33:45;;;;;;;19.67;9.48;;;10.60;89.10;;;;;;5027194;28;20029;-72
2022/11/12 07:36:16;;;;;;;13.02;7.47;;;11.40;84.60;;;;;;5019475;28;20105;-72
2022/11/12 07:38:43;;;;;;;12.75;7.80;;;12.20;82.60;;;;;;5013413;28;20057;-73
2022/11/12 07:41:21;;;;;;;13.48;7.32;;;12.80;79.90;;;;;;5023351;28;20028;-73
2022/11/12 07:43:48;;;;;;;11.70;7.18;;;13.40;77.40;;;;;;5019042;28;20029;-72
2022/11/12 07:46:24;;;;;;;9.93;5.88;;;13.80;75.10;;;;;;5029272;28;20033;-73
2022/11/12 07:48:50;;;;;;;11.43;7.90;;;14.20;76.00;;;;;;5018304;28;20041;-74
2022/11/12 07:51:21;;;;;;;10.40;6.97;;;14.60;73.40;;;;;;5019251;28;20097;-72
2022/11/12 07:53:51;;;;;;;11.98;4.05;;;15.00;71.80;;;;;;5011703;28;20694;-72
2022/11/12 07:56:19;;;;;;;15.73;4.67;;;15.50;75.10;;;;;;5023584;28;20040;-72
2022/11/12 07:58:47;;;;;;;11.13;3.90;;;16.30;80.50;;;;;;5020113;28;20419;-70
2022/11/12 08:01:21;;;;;;;11.77;5.82;;;17.20;80.90;;;;;;5021273;28;20536;-70
2022/11/12 08:03:47;;;;;;;9.18;5.10;;;17.90;78.90;;;;;;5017655;28;20113;-71
2022/11/12 08:06:14;;;;;;;8.90;5.50;;;18.30;72.10;;;;;;5026118;28;20133;-71
2022/11/12 08:08:39;;;;;;;9.50;6.40;;;18.30;65.80;;;;;;5021330;28;20064;-72
2022/11/12 08:11:05;;;;;;;12.45;6.40;;;18.10;64.00;;;;;;5026200;28;20057;-72
2022/11/12 08:13:30;;;;;;;9.15;5.10;;;18.00;62.70;;;;;;5016994;28;20076;-72
2022/11/12 08:15:59;;;;;;;11.60;5.60;;;18.00;64.60;;;;;;5024486;28;20030;-73
2022/11/12 08:18:25;;;;;;;8.30;4.63;;;18.30;65.40;;;;;;5013354;28;20267;-73
2022/11/12 08:20:51;;;;;;;8.07;4.68;;;18.80;65.00;;;;;;5020744;28;20018;-72
2022/11/12 08:23:16;;;;;;;11.55;4.78;;;19.40;63.90;;;;;;5027064;28;20124;-72
2022/11/12 08:25:42;;;;;;;8.18;4.50;;;19.80;63.00;;;;;;5024167;28;20403;-72
2022/11/12 08:28:08;;;;;;;7.70;4.38;;;20.00;62.70;;;;;;5010790;28;20742;-72
2022/11/12 08:30:34;;;;;;;9.30;4.57;;;20.20;62.10;;;;;;5016416;28;20026;-73
2022/11/12 08:33:02;;;;;;;7.40;3.78;;;20.30;62.00;;;;;;5026704;28;20036;-72
2022/11/12 08:35:29;;;;;;;8.68;3.80;;;20.30;61.80;;;;;;5012413;28;20053;-73
2022/11/12 08:38:00;;;;;;;7.20;4.18;;;20.40;61.80;;;;;;5026662;28;20587;-73
2022/11/12 08:40:27;;;;;;;7.88;4.28;;;20.40;61.70;;;;;;5013963;28;20033;-73
2022/11/12 08:43:00;;;;;;;7.05;3.20;;;20.40;61.60;;;;;;5025650;28;20025;-73
2022/11/12 08:45:27;;;;;;;7.40;4.50;;;20.50;61.90;;;;;;5015994;28;20060;-73
2022/11/12 08:47:58;;;;;;;6.25;3.78;;;20.60;61.40;;;;;;5021216;28;20065;-73
2022/11/12 08:50:24;;;;;;;5.00;2.72;;;20.60;61.10;;;;;;5018037;28;20029;-73
2022/11/12 08:52:50;;;;;;;6.15;2.90;;;20.60;62.10;;;;;;5027419;28;20145;-73
2022/11/12 08:55:15;;;;;;;5.53;3.22;;;20.60;62.60;;;;;;5009668;28;20602;-72
2022/11/12 08:57:43;;;;;;;5.97;2.90;;;20.60;62.90;;;;;;5020068;28;20021;-73
2022/11/12 09:00:10;;;;;;;10.82;6.50;;;20.60;63.30;;;;;;5019243;28;20034;-74
2022/11/12 09:02:38;;;;;;;10.20;5.78;;;20.50;55.60;;;;;;5021713;28;20034;-73
2022/11/12 09:05:04;;;;;;;13.48;7.40;;;20.20;54.90;;;;;;5021088;28;20121;-71
2022/11/12 09:07:30;;;;;;;7.95;4.10;;;19.80;54.30;;;;;;5021115;28;20028;-75
2022/11/12 09:09:57;;;;;;;12.68;7.35;;;19.70;65.10;;;;;;5017294;28;20075;-75
2022/11/12 09:12:23;;;;;;;12.65;8.43;;;19.30;56.00;;;;;;5018776;28;20018;-74
2022/11/12 09:14:49;;;;;;;16.25;8.07;;;19.10;55.70;;;;;;5012523;28;20036;-75
2022/11/12 09:17:14;;;;;;;11.80;8.18;;;18.90;55.60;;;;;;5020164;28;20017;-74
2022/11/12 09:19:41;;;;;;;11.77;7.90;;;18.70;55.90;;;;;;5026613;28;20134;-75
2022/11/12 09:22:06;;;;;;;13.50;8.32;;;18.60;56.60;;;;;;5021137;28;20016;-74
2022/11/12 09:24:32;;;;;;;12.65;8.35;;;18.50;56.50;;;;;;5026555;28;20046;-75
2022/11/12 09:26:58;;;;;;;12.20;7.85;;;18.40;56.70;;;;;;5016898;28;20476;-76
2022/11/12 09:29:24;;;;;;;12.75;8.80;;;18.40;57.10;;;;;;5018275;28;20022;-75
2022/11/12 09:31:49;;;;;;;13.15;8.07;;;18.30;57.30;;;;;;5022029;28;20026;-75
2022/11/12 09:34:15;;;;;;;12.88;9.00;;;18.40;57.90;;;;;;5027168;28;20083;-74
2022/11/12 09:36:41;;;;;;;11.13;8.02;;;18.40;57.70;;;;;;5025415;28;20036;-76
2022/11/12 09:39:07;;;;;;;10.95;7.90;;;18.30;57.60;;;;;;5014232;28;20014;-76
2022/11/12 09:41:37;;;;;;;14.15;8.55;;;18.30;56.60;;;;;;5014275;28;20143;-74
2022/11/12 09:44:08;;;;;;;13.48;8.15;;;18.30;55.70;;;;;;5025307;28;20404;-76
2022/11/12 09:46:40;;;;;;;11.57;7.55;;;18.40;56.40;;;;;;5016822;28;20026;-76
2022/11/12 09:49:20;;;;;;;11.65;7.57;;;18.30;56.20;;;;;;5027087;28;20040;-76
2022/11/12 09:52:02;;;;;;;11.88;8.13;;;18.20;56.80;;;;;;5009574;28;20029;-76
2022/11/12 09:54:33;;;;;;;9.80;7.38;;;18.20;56.40;;;;;;5025383;28;20033;-77
2022/11/12 09:57:00;;;;;;;10.93;6.15;;;18.10;56.40;;;;;;5026878;28;20029;-76
2022/11/12 09:59:29;;;;;;;10.63;8.00;;;18.00;61.00;;;;;;5024893;28;20018;-75
2022/11/12 10:02:04;;;;;;;10.57;6.93;;;18.10;58.50;;;;;;5031132;28;20036;-77
2022/11/12 10:05:21;;;;;;;11.32;7.50;;;18.40;57.90;;;;;;5023475;28;20441;-76
2022/11/12 10:08:24;;;;;;;10.10;6.57;;;18.50;56.70;;;;;;5013208;28;20133;-75
2022/11/12 10:11:16;;;;;;;11.05;5.93;;;18.60;57.30;;;;;;5023472;28;20037;-75
2022/11/12 10:13:59;;;;;;;11.77;6.65;;;18.70;56.00;;;;;;5018290;28;20057;-77
2022/11/12 10:16:50;;;;;;;15.35;7.25;;;18.70;55.30;;;;;;5012378;28;20026;-77
2022/11/12 10:19:27;;;;;;;;;;;18.60;55.20;;;;;;5021571;28;20359;-77
2022/11/12 10:22:20;;;;;;;9.85;6.75;;;18.60;56.20;;;;;;5030813;28;19909;-75
2022/11/12 10:24:47;;;;;;;12.02;7.22;;;18.70;55.70;;;;;;5026069;28;20148;-76
2022/11/12 10:27:20;;;;;;;9.65;6.75;;;18.70;55.60;;;;;;5020876;28;20014;-77
2022/11/12 10:29:57;;;;;;;10.48;6.85;;;18.70;56.20;;;;;;5023436;28;20373;-76
2022/11/12 10:32:23;;;;;;;11.02;6.78;;;18.80;56.80;;;;;;5020956;28;20029;-77
2022/11/12 10:34:48;;;;;;;9.90;5.75;;;18.90;56.40;;;;;;5024966;28;20021;-75
2022/11/12 10:37:34;;;;;;;9.60;6.90;;;18.90;56.30;;;;;;5019729;28;20462;-76
2022/11/12 10:40:19;;;;;;;11.07;7.15;;;18.90;56.50;;;;;;5022165;28;20146;-76
2022/11/12 10:42:55;;;;;;;9.50;6.05;;;19.00;56.60;;;;;;5015994;28;20021;-76
2022/11/12 10:45:22;;;;;;;9.07;7.07;;;19.00;56.30;;;;;;5017845;28;20746;-74
2022/11/12 10:47:47;;;;;;;9.13;6.38;;;19.10;56.60;;;;;;5016478;28;20025;-76
2022/11/12 10:50:19;;;;;;;9.65;6.95;;;19.10;55.80;;;;;;5012875;28;20942;-74
2022/11/12 10:53:06;;;;;;;8.77;6.28;;;19.30;56.30;;;;;;5019666;28;20018;-75
2022/11/12 10:55:35;;;;;;;8.18;4.32;;;19.40;56.30;;;;;;5022317;28;20094;-74
2022/11/12 10:58:19;;;;;;;8.52;5.50;;;19.50;66.50;;;;;;5017828;28;20021;-76
2022/11/12 11:00:58;;;;;;;8.82;6.32;;;19.60;55.20;;;;;;5019190;28;20082;-74
2022/11/12 11:03:30;;;;;;;8.38;5.60;;;19.70;54.30;;;;;;5018080;28;20037;-73
2022/11/12 11:06:28;;;;;;;9.63;5.95;;;19.90;53.80;;;;;;5021402;28;20033;-76
2022/11/12 11:09:08;;;;;;;8.38;5.38;;;20.10;54.20;;;;;;4998902;28;20116;-75
2022/11/12 11:11:33;;;;;;;5.95;3.50;;;20.20;56.00;;;;;;5018739;28;20342;-74
2022/11/12 11:14:32;;;;;;;9.30;5.75;;;20.30;63.80;;;;;;5011892;28;20039;-75
2022/11/12 11:17:07;;;;;;;10.02;4.53;;;20.40;60.00;;;;;;5014423;28;20069;-73
2022/11/12 11:19:44;;;;;;;9.20;5.80;;;20.50;59.70;;;;;;5006157;28;20781;-75
2022/11/12 11:22:25;;;;;;;9.98;5.57;;;20.40;54.20;;;;;;5019732;28;20020;-74
2022/11/12 11:25:13;;;;;;;8.48;5.22;;;20.50;54.80;;;;;;5004936;28;20050;-74
2022/11/12 11:28:02;;;;;;;8.40;5.03;;;20.60;53.40;;;;;;5020767;28;20026;-73
2022/11/12 11:30:28;;;;;;;8.02;5.40;;;20.60;54.50;;;;;;5011518;28;20022;-73
2022/11/12 11:33:19;;;;;;;10.18;5.45;;;20.70;56.30;;;;;;5023308;28;20026;-74
2022/11/12 11:36:03;;;;;;;7.88;4.90;;;20.70;58.20;;;;;;5019736;28;20029;-75
2022/11/12 11:38:41;;;;;;;10.30;6.82;;;20.50;55.00;;;;;;5021526;28;20025;-74
2022/11/12 11:41:29;;;;;;;9.43;6.32;;;20.50;53.20;;;;;;5018988;28;20459;-74
2022/11/12 11:44:04;;;;;;;7.82;4.80;;;20.50;54.40;;;;;;5025278;28;20114;-74
2022/11/12 11:46:53;;;;;;;7.15;4.50;;;20.50;60.30;;;;;;5016036;28;20494;-73
2022/11/12 11:49:30;;;;;;;6.53;3.80;;;20.50;55.40;;;;;;5019192;28;20029;-74
2022/11/12 11:52:06;;;;;;;8.93;5.18;;;20.60;59.10;;;;;;5027058;28;20037;-73
2022/11/12 11:55:13;;;;;;;8.68;5.20;;;20.80;57.50;;;;;;5015382;28;20018;-74
2022/11/12 11:58:03;;;;;;;8.52;6.00;;;20.90;54.90;;;;;;5016197;28;20068;-75
2022/11/12 12:00:41;;;;;;;7.40;4.75;;;21.10;55.10;;;;;;5016119;28;20104;-74
2022/11/12 12:03:23;;;;;;;8.40;5.72;;;21.30;55.40;;;;;;5016133;28;20104;-74
2022/11/12 12:06:04;;;;;;;8.30;4.65;;;21.40;53.30;;;;;;5022587;28;20033;-75
2022/11/12 12:08:58;;;;;;;8.77;5.43;;;21.40;52.70;;;;;;5020597;28;20033;-74
2022/11/12 12:11:39;;;;;;;8.68;4.68;;;21.40;51.20;;;;;;5007544;28;20018;-74
2022/11/12 12:14:27;;;;;;;10.93;5.28;;;21.50;54.30;;;;;;5019259;28;20032;-74
2022/11/12 12:17:12;;;;;;;6.75;4.55;;;21.60;52.80;;;;;;5025210;28;20034;-75
2022/11/12 12:19:44;;;;;;;7.28;4.75;;;21.80;55.40;;;;;;5028942;28;20021;-75
2022/11/12 12:22:17;;;;;;;5.82;3.90;;;21.90;51.10;;;;;;5021032;28;20033;-76
2022/11/12 12:24:48;;;;;;;6.72;4.25;;;22.00;53.40;;;;;;5028358;28;20045;-74
2022/11/12 12:27:26;;;;;;;6.10;3.63;;;22.20;53.20;;;;;;5010713;28;20022;-75
2022/11/12 12:30:14;;;;;;;8.25;4.75;;;22.40;56.00;;;;;;5029661;28;20021;-76
2022/11/12 12:32:59;;;;;;;7.88;4.72;;;22.50;51.60;;;;;;5029839;28;20034;-75
2022/11/12 12:35:31;;;;;;;7.38;4.25;;;22.50;51.20;;;;;;5029198;28;20013;-74
2022/11/12 12:38:05;;;;;;;8.07;4.38;;;22.60;49.90;;;;;;5029294;28;20561;-75
2022/11/12 12:41:07;;;;;;;6.47;4.45;;;22.80;50.90;;;;;;5027961;28;20029;-75
2022/11/12 12:43:49;;;;;;;5.53;3.20;;;22.90;50.20;;;;;;5012296;28;20064;-74
2022/11/12 12:46:19;;;;;;;9.23;3.75;;;23.00;55.40;;;;;;5020660;28;20112;-75
2022/11/12 12:48:46;;;;;;;7.03;3.97;;;23.10;54.20;;;;;;5027028;28;20514;-74
2022/11/12 12:51:12;;;;;;;11.68;5.07;;;23.20;53.40;;;;;;5023660;28;20108;-75
2022/11/12 12:53:39;;;;;;;5.10;2.78;;;23.20;50.50;;;;;;5020719;28;20111;-76
2022/11/12 12:56:13;;;;;;;6.43;3.90;;;23.40;54.30;;;;;;5020768;28;20017;-75
2022/11/12 12:58:47;;;;;;;6.90;3.55;;;23.50;54.90;;;;;;5023933;28;20022;-74
2022/11/12 13:01:21;;;;;;;8.95;6.05;;;23.60;55.70;;;;;;5025610;28;20021;-75
2022/11/12 13:04:04;;;;;;;7.18;4.30;;;23.70;51.20;;;;;;5013884;28;20041;-75
2022/11/12 13:06:44;;;;;;;9.18;5.10;;;23.80;55.30;;;;;;5024795;28;20025;-75
2022/11/12 13:09:13;;;;;;;7.78;5.95;;;23.80;56.20;;;;;;5017435;28;20040;-75
2022/11/12 13:14:35;;;;;;;7.18;5.13;;;23.80;52.30;;;;;;5013993;28;20546;-74
2022/11/12 13:17:02;;;;;;;10.65;7.75;;;23.80;55.90;;;;;;5029691;28;20025;-75